Time;durP1;ratioP1;P1;durP2;ratioP2;P2;SDS_P1;SDS_P2;PMS_P1;PMS_P2;Temp;Humidity;BMP_temperature;BMP_pressure;BME280_temperature;BME280_humidity;BME280_pressure;Samples;Min_cycle;Max_cycle;Signal;HPM_P1;HPM_P2
2022/01/13 00:00:30;;;;;;;34.43;18.00;;;3.90;95.90;;;;;;5029161;28;20469;-76
2022/01/13 00:02:55;;;;;;;38.20;17.60;;;3.80;95.90;;;;;;5034379;28;20878;-77
2022/01/13 00:05:28;;;;;;;40.43;17.53;;;3.80;95.80;;;;;;5033735;28;20507;-78
2022/01/13 00:07:58;;;;;;;39.27;17.33;;;3.80;95.80;;;;;;5033690;28;20234;-77
2022/01/13 00:10:27;;;;;;;39.23;17.47;;;3.80;95.80;;;;;;5033360;28;20464;-77
2022/01/13 00:13:06;;;;;;;39.00;19.50;;;3.80;95.90;;;;;;5033650;28;20401;-77
2022/01/13 00:19:06;;;;;;;46.67;18.17;;;3.70;96.00;;;;;;4993452;28;20791;-77
2022/01/13 00:24:01;;;;;;;54.13;20.40;;;3.70;96.10;;;;;;5032829;28;20461;-76
2022/01/13 00:26:29;;;;;;;58.83;20.40;;;3.60;95.90;;;;;;5033917;28;20417;-76
2022/01/13 00:28:57;;;;;;;54.13;19.90;;;3.60;96.00;;;;;;5034832;28;20401;-76
2022/01/13 00:31:29;;;;;;;38.27;19.20;;;3.60;96.20;;;;;;5021780;28;20424;-75
2022/01/13 00:33:57;;;;;;;45.77;20.60;;;3.60;96.30;;;;;;5048326;28;20439;-77
2022/01/13 00:36:25;;;;;;;41.23;21.33;;;3.60;96.10;;;;;;5047810;28;20476;-77
2022/01/13 00:38:52;;;;;;;51.63;24.20;;;3.60;96.20;;;;;;5039748;28;20410;-77
2022/01/13 00:41:19;;;;;;;47.93;24.17;;;3.60;96.30;;;;;;5015163;28;20464;-77
2022/01/13 00:43:47;;;;;;;66.67;24.93;;;3.60;96.30;;;;;;5032988;28;20448;-76
2022/01/13 00:46:22;;;;;;;64.03;24.33;;;3.50;96.30;;;;;;5032586;28;20466;-76
2022/01/13 00:48:49;;;;;;;55.90;25.20;;;3.50;96.40;;;;;;5033100;28;20719;-76
2022/01/13 00:51:15;;;;;;;60.77;24.37;;;3.60;96.50;;;;;;5032694;28;20953;-77
2022/01/13 00:53:41;;;;;;;69.87;26.83;;;3.60;96.50;;;;;;5018790;28;20405;-75
2022/01/13 00:56:07;;;;;;;55.13;25.47;;;3.60;96.50;;;;;;5034111;28;20162;-77
2022/01/13 00:58:34;;;;;;;59.33;25.27;;;3.70;96.30;;;;;;5014833;28;20939;-76
2022/01/13 01:01:02;;;;;;;69.50;25.47;;;3.60;96.20;;;;;;5032303;28;20444;-76
2022/01/13 01:03:28;;;;;;;74.63;26.70;;;3.60;96.10;;;;;;5033416;28;20456;-77
2022/01/13 01:05:55;;;;;;;74.57;26.13;;;3.60;96.30;;;;;;4998560;28;20563;-76
2022/01/13 01:08:21;;;;;;;60.33;26.97;;;3.60;96.40;;;;;;5031820;28;20429;-77
2022/01/13 01:10:49;;;;;;;64.30;24.87;;;3.60;96.50;;;;;;5033323;28;20429;-77
2022/01/13 01:13:20;;;;;;;62.73;27.67;;;3.60;96.50;;;;;;5032751;28;20488;-77
2022/01/13 01:15:50;;;;;;;58.20;25.13;;;3.70;96.40;;;;;;5014133;28;20440;-76
2022/01/13 01:18:30;;;;;;;54.90;25.80;;;3.70;96.30;;;;;;5031999;28;20417;-77
2022/01/13 01:21:18;;;;;;;55.40;26.60;;;3.60;96.40;;;;;;5013527;28;20779;-76
2022/01/13 01:26:29;;;;;;;73.37;27.50;;;3.70;96.40;;;;;;5030118;28;20883;-77
2022/01/13 01:29:03;;;;;;;63.73;24.53;;;3.70;96.30;;;;;;5032758;28;20416;-78
2022/01/13 01:31:32;;;;;;;58.00;24.83;;;3.70;96.20;;;;;;5013974;28;20413;-77
2022/01/13 01:34:22;;;;;;;56.50;27.03;;;3.70;96.30;;;;;;5014442;28;20412;-77
2022/01/13 01:36:46;;;;;;;58.53;24.57;;;3.80;96.30;;;;;;5031200;28;20420;-77
2022/01/13 01:39:13;;;;;;;52.70;22.87;;;3.80;96.30;;;;;;5031978;28;20428;-77
2022/01/13 01:41:44;;;;;;;55.07;24.00;;;3.80;96.20;;;;;;5031783;28;20824;-77
2022/01/13 01:44:19;;;;;;;47.80;20.80;;;3.80;96.10;;;;;;5031703;28;20472;-77
2022/01/13 01:46:46;;;;;;;49.83;24.00;;;3.80;96.10;;;;;;5013917;28;20851;-77
2022/01/13 01:49:16;;;;;;;47.60;23.97;;;3.80;96.00;;;;;;5032132;28;20541;-77
2022/01/13 01:51:47;;;;;;;53.73;24.10;;;3.80;95.90;;;;;;5030656;28;20417;-76
2022/01/13 01:54:13;;;;;;;54.93;24.97;;;3.80;95.90;;;;;;5032000;28;20424;-76
2022/01/13 01:56:39;;;;;;;55.83;24.17;;;3.80;95.90;;;;;;5032617;28;20405;-75
2022/01/13 01:59:12;;;;;;;55.83;25.57;;;3.90;96.00;;;;;;5030930;28;20182;-76
2022/01/13 02:01:38;;;;;;;48.00;21.70;;;3.90;96.00;;;;;;5032060;28;20508;-77
2022/01/13 02:04:04;;;;;;;53.47;23.30;;;3.90;95.90;;;;;;5038632;28;20948;-77
2022/01/13 02:06:30;;;;;;;54.73;22.70;;;3.80;95.90;;;;;;5006715;28;20421;-76
2022/01/13 02:08:58;;;;;;;43.93;21.13;;;3.80;95.70;;;;;;5042632;28;20212;-76
2022/01/13 02:11:26;;;;;;;54.77;24.70;;;3.70;95.80;;;;;;5038940;28;20171;-77
2022/01/13 02:13:54;;;;;;;51.23;23.53;;;3.70;96.00;;;;;;5043464;28;20417;-77
2022/01/13 02:18:56;;;;;;;53.77;22.90;;;3.80;96.20;;;;;;5039054;28;20855;-77
2022/01/13 02:21:24;;;;;;;53.30;24.23;;;3.80;96.10;;;;;;5036741;28;20453;-77
2022/01/13 02:23:49;;;;;;;52.73;24.50;;;3.80;96.10;;;;;;5034648;28;20530;-77
2022/01/13 02:26:15;;;;;;;48.70;23.07;;;3.80;96.10;;;;;;5035518;28;20496;-77
2022/01/13 02:28:41;;;;;;;43.97;22.00;;;3.90;96.10;;;;;;5034918;28;20230;-77
2022/01/13 02:31:07;;;;;;;45.80;22.57;;;3.80;96.00;;;;;;5035078;28;20218;-77
2022/01/13 02:33:35;;;;;;;52.50;25.60;;;3.90;96.00;;;;;;5034702;28;20420;-77
2022/01/13 02:36:01;;;;;;;53.93;23.10;;;3.90;96.00;;;;;;5016832;28;20417;-77
2022/01/13 02:38:27;;;;;;;61.00;24.70;;;3.90;96.00;;;;;;5038033;28;20417;-77
2022/01/13 02:40:55;;;;;;;50.33;23.20;;;3.90;95.90;;;;;;5037254;28;20448;-76
2022/01/13 02:43:22;;;;;;;47.73;23.87;;;3.90;95.90;;;;;;5036892;28;20202;-76
2022/01/13 02:46:04;;;;;;;54.83;23.47;;;3.90;95.90;;;;;;5017001;28;20984;-76
2022/01/13 02:48:30;;;;;;;55.30;23.67;;;3.90;95.90;;;;;;5034756;28;20409;-77
2022/01/13 02:50:58;;;;;;;48.23;22.10;;;3.90;95.80;;;;;;5018026;28;20453;-76
2022/01/13 02:53:24;;;;;;;52.07;24.73;;;3.90;95.80;;;;;;5035392;28;20478;-76
2022/01/13 02:55:56;;;;;;;47.67;21.67;;;3.90;95.90;;;;;;5035167;28;20393;-77
2022/01/13 02:58:22;;;;;;;44.70;20.27;;;3.90;95.80;;;;;;5017233;28;20544;-77
2022/01/13 03:00:49;;;;;;;39.83;20.53;;;3.90;95.80;;;;;;5034741;28;20464;-77
2022/01/13 03:03:14;;;;;;;41.20;19.70;;;3.80;95.80;;;;;;5034807;28;20723;-76
2022/01/13 03:05:40;;;;;;;44.20;21.80;;;3.80;95.80;;;;;;5034389;28;20405;-77
2022/01/13 03:08:08;;;;;;;44.80;22.93;;;3.80;95.90;;;;;;5034647;28;20415;-77
2022/01/13 03:10:34;;;;;;;47.97;20.77;;;3.70;95.80;;;;;;5034723;28;20432;-77
2022/01/13 03:13:00;;;;;;;42.03;21.73;;;3.70;96.00;;;;;;5033188;28;20917;-77
2022/01/13 03:15:27;;;;;;;37.83;20.73;;;3.70;96.00;;;;;;5033691;28;20505;-77
2022/01/13 03:17:52;;;;;;;36.57;19.27;;;3.70;95.90;;;;;;5032884;28;20551;-77
2022/01/13 03:20:18;;;;;;;48.23;21.47;;;3.60;95.90;;;;;;5033673;28;20432;-77
2022/01/13 03:22:44;;;;;;;44.57;20.60;;;3.60;96.10;;;;;;4999791;28;20194;-77
2022/01/13 03:25:10;;;;;;;39.23;20.90;;;3.60;96.30;;;;;;5033740;28;20452;-77
2022/01/13 03:27:37;;;;;;;49.60;23.67;;;3.50;96.20;;;;;;5016613;28;20158;-77
2022/01/13 03:30:06;;;;;;;46.30;23.50;;;3.50;96.40;;;;;;5016856;28;20824;-77
2022/01/13 03:32:36;;;;;;;47.30;20.93;;;3.50;96.40;;;;;;5016510;28;20781;-77
2022/01/13 03:35:04;;;;;;;42.83;20.87;;;3.60;96.40;;;;;;4999530;28;21069;-76
2022/01/13 03:37:30;;;;;;;44.20;22.13;;;3.50;96.40;;;;;;5033792;28;20479;-76
2022/01/13 03:39:57;;;;;;;48.53;23.40;;;3.60;96.40;;;;;;5034484;28;20432;-76
2022/01/13 03:42:23;;;;;;;42.47;21.57;;;3.50;96.30;;;;;;5034649;28;20422;-76
2022/01/13 03:44:49;;;;;;;53.23;23.30;;;3.50;96.20;;;;;;5019075;28;20506;-76
2022/01/13 03:47:15;;;;;;;47.70;24.10;;;3.50;96.30;;;;;;5019712;28;20252;-75
2022/01/13 03:49:41;;;;;;;41.53;21.07;;;3.50;96.50;;;;;;5016010;28;20465;-75
2022/01/13 03:52:13;;;;;;;45.87;22.30;;;3.50;96.50;;;;;;5033981;28;20405;-76
2022/01/13 03:54:39;;;;;;;50.63;21.00;;;3.50;96.40;;;;;;5033783;28;20813;-76
2022/01/13 03:58:02;;;;;;;51.87;22.73;;;3.50;96.40;;;;;;5015253;28;20500;-76
2022/01/13 04:00:56;;;;;;;40.57;20.17;;;3.50;96.30;;;;;;5015787;28;20485;-76
2022/01/13 04:03:22;;;;;;;46.77;19.40;;;3.50;96.20;;;;;;5033429;28;20447;-76
2022/01/13 04:06:12;;;;;;;57.00;24.37;;;3.50;96.30;;;;;;5032854;28;20782;-76
2022/01/13 04:08:38;;;;;;;42.60;20.27;;;3.50;96.40;;;;;;5033127;28;20185;-76
2022/01/13 04:11:04;;;;;;;45.07;21.27;;;3.50;96.20;;;;;;5032573;28;20898;-76
2022/01/13 04:16:27;;;;;;;48.53;22.63;;;3.50;96.10;;;;;;5032992;28;20174;-76
2022/01/13 04:18:56;;;;;;;48.23;22.17;;;3.60;96.20;;;;;;5033196;28;20908;-75
2022/01/13 04:21:22;;;;;;;45.83;21.23;;;3.60;96.20;;;;;;5032723;28;20444;-74
2022/01/13 04:23:49;;;;;;;51.63;23.03;;;3.60;96.00;;;;;;5032569;28;20839;-75
2022/01/13 04:26:19;;;;;;;46.03;22.73;;;3.60;96.10;;;;;;5032982;28;20475;-77
2022/01/13 04:28:46;;;;;;;45.87;23.20;;;3.60;96.10;;;;;;5033089;28;20942;-77
2022/01/13 04:31:12;;;;;;;47.67;23.37;;;3.60;96.00;;;;;;5033621;28;20437;-75
2022/01/13 04:33:38;;;;;;;52.83;25.27;;;3.60;95.90;;;;;;5036229;28;20512;-75
2022/01/13 04:36:06;;;;;;;50.60;22.70;;;3.60;95.90;;;;;;5036639;28;20572;-77
2022/01/13 04:38:32;;;;;;;51.60;23.73;;;3.60;96.00;;;;;;5025252;28;20417;-76
2022/01/13 04:41:01;;;;;;;45.80;23.03;;;3.60;95.90;;;;;;5032488;28;20491;-78
2022/01/13 04:43:30;;;;;;;57.03;21.40;;;3.60;95.90;;;;;;5015073;28;20405;-75
2022/01/13 04:45:56;;;;;;;48.37;25.17;;;3.60;95.90;;;;;;5032565;28;20559;-77
2022/01/13 04:48:24;;;;;;;55.73;25.17;;;3.60;95.70;;;;;;5014961;28;20503;-77
2022/01/13 04:50:49;;;;;;;48.67;22.60;;;3.60;95.80;;;;;;5032654;28;20437;-77
2022/01/13 04:53:15;;;;;;;45.93;22.47;;;3.50;95.70;;;;;;5032661;28;20409;-76
2022/01/13 04:55:50;;;;;;;63.63;23.93;;;3.50;95.60;;;;;;5015201;28;20177;-77
2022/01/13 04:58:16;;;;;;;60.30;23.90;;;3.40;95.90;;;;;;5033419;28;20638;-76
2022/01/13 05:00:41;;;;;;;48.33;21.90;;;3.40;96.00;;;;;;5033239;28;20456;-77
2022/01/13 05:03:07;;;;;;;49.87;24.47;;;3.40;96.20;;;;;;5023215;28;20409;-77
2022/01/13 05:05:33;;;;;;;44.40;22.30;;;3.50;96.20;;;;;;5023734;28;20198;-77
2022/01/13 05:07:59;;;;;;;56.90;25.87;;;3.40;96.10;;;;;;5015827;28;20265;-76
2022/01/13 05:10:24;;;;;;;48.97;21.13;;;3.40;96.00;;;;;;5015240;28;20554;-75
2022/01/13 05:12:55;;;;;;;49.73;24.00;;;3.30;95.90;;;;;;5033015;28;20166;-77
2022/01/13 05:22:15;;;;;;;55.43;25.53;;;3.20;96.30;;;;;;4941379;29;20429;-76
2022/01/13 05:25:06;;;;;;;46.00;21.70;;;3.20;96.40;;;;;;4944905;29;20461;-77
2022/01/13 05:27:32;;;;;;;52.00;22.00;;;3.10;96.40;;;;;;4944373;29;20414;-77
2022/01/13 05:29:59;;;;;;;60.10;25.63;;;3.10;96.50;;;;;;4940043;29;20476;-77
2022/01/13 05:32:24;;;;;;;54.17;22.57;;;3.10;96.50;;;;;;4921856;29;20593;-77
2022/01/13 05:34:50;;;;;;;50.40;22.57;;;3.10;96.70;;;;;;4935031;29;20429;-77
2022/01/13 05:37:16;;;;;;;59.17;22.93;;;3.20;96.70;;;;;;4917070;29;20177;-77
2022/01/13 05:39:41;;;;;;;53.97;25.07;;;3.30;96.70;;;;;;4917872;29;20682;-76
2022/01/13 05:42:07;;;;;;;61.13;24.93;;;3.30;96.50;;;;;;4936571;29;20663;-77
2022/01/13 05:44:38;;;;;;;57.20;24.17;;;3.40;96.40;;;;;;4922915;29;20232;-76
2022/01/13 05:47:05;;;;;;;52.50;25.00;;;3.40;96.30;;;;;;4940165;29;20177;-78
2022/01/13 05:49:31;;;;;;;49.27;24.23;;;3.40;96.30;;;;;;4921788;29;20445;-76
2022/01/13 05:51:57;;;;;;;54.83;24.30;;;3.40;96.30;;;;;;4939334;29;20784;-76
2022/01/13 05:54:22;;;;;;;50.50;23.63;;;3.40;96.10;;;;;;4922299;29;20429;-76
2022/01/13 05:56:48;;;;;;;54.53;22.93;;;3.40;96.10;;;;;;4939182;29;20204;-77
2022/01/13 05:59:14;;;;;;;51.10;22.63;;;3.40;96.20;;;;;;4938674;29;20737;-76
2022/01/13 06:01:39;;;;;;;57.17;23.73;;;3.40;96.20;;;;;;4921957;29;20229;-77
2022/01/13 06:04:05;;;;;;;49.60;22.70;;;3.30;96.10;;;;;;4939930;29;20201;-77
2022/01/13 06:06:31;;;;;;;47.70;23.17;;;3.40;96.40;;;;;;4919839;29;20273;-76
2022/01/13 06:08:56;;;;;;;51.73;24.70;;;3.40;96.30;;;;;;4927020;29;20174;-77
2022/01/13 06:11:23;;;;;;;54.50;22.70;;;3.40;96.20;;;;;;4932882;29;20213;-75
2022/01/13 06:13:50;;;;;;;48.00;23.47;;;3.40;96.20;;;;;;4923222;29;20178;-75
2022/01/13 06:16:16;;;;;;;51.60;24.37;;;3.40;96.20;;;;;;4936920;29;20468;-74
2022/01/13 06:18:42;;;;;;;47.90;23.87;;;3.40;96.20;;;;;;4940278;29;20423;-75
2022/01/13 06:21:08;;;;;;;53.43;24.77;;;3.40;96.20;;;;;;4927980;29;20468;-75
2022/01/13 06:23:34;;;;;;;51.43;24.07;;;3.30;96.10;;;;;;4953954;29;20460;-75
2022/01/13 06:26:03;;;;;;;58.50;24.80;;;3.30;96.10;;;;;;4946257;29;20194;-77
2022/01/13 06:28:28;;;;;;;50.20;21.13;;;3.30;96.20;;;;;;4938797;29;20174;-72
2022/01/13 06:30:54;;;;;;;44.67;24.27;;;3.30;96.10;;;;;;4937753;29;20433;-73
2022/01/13 06:33:20;;;;;;;57.60;24.80;;;3.30;96.10;;;;;;4920953;29;20166;-72
2022/01/13 06:35:46;;;;;;;49.20;23.57;;;3.30;96.10;;;;;;4929087;29;20170;-72
2022/01/13 06:38:12;;;;;;;50.53;24.73;;;3.30;96.10;;;;;;4936944;29;20256;-73
2022/01/13 06:40:37;;;;;;;55.37;23.73;;;3.20;96.20;;;;;;4935819;29;20495;-72
2022/01/13 06:43:03;;;;;;;63.40;32.35;;;3.20;96.10;;;;;;4920786;29;20431;-71
2022/01/13 06:45:29;;;;;;;58.30;25.30;;;3.20;96.40;;;;;;4923844;29;20225;-72
2022/01/13 06:47:55;;;;;;;50.87;24.00;;;3.20;96.40;;;;;;4906322;29;20178;-73
2022/01/13 06:50:21;;;;;;;50.70;21.57;;;3.20;96.40;;;;;;4935414;29;20449;-71
2022/01/13 06:52:47;;;;;;;54.03;25.20;;;3.10;96.40;;;;;;4935957;29;20170;-72
2022/01/13 06:55:13;;;;;;;53.40;21.67;;;3.10;96.10;;;;;;4926021;29;20613;-72
2022/01/13 06:57:39;;;;;;;51.20;24.33;;;3.10;96.50;;;;;;4937687;29;20505;-70
2022/01/13 07:00:05;;;;;;;51.13;24.43;;;3.10;96.30;;;;;;4937352;29;20623;-71
2022/01/13 07:02:32;;;;;;;60.37;24.43;;;3.10;96.50;;;;;;4942981;29;20346;-72
2022/01/13 07:04:58;;;;;;;48.33;23.77;;;3.10;96.30;;;;;;4950383;29;20973;-72
2022/01/13 07:07:25;;;;;;;52.53;23.30;;;3.10;96.30;;;;;;4929527;29;20440;-71
2022/01/13 07:09:50;;;;;;;53.90;24.23;;;3.10;96.30;;;;;;4935685;29;20226;-70
2022/01/13 07:12:16;;;;;;;52.13;23.30;;;3.10;96.20;;;;;;4939893;29;20520;-70
2022/01/13 07:14:42;;;;;;;61.90;24.70;;;3.00;96.40;;;;;;4937909;29;20185;-71
2022/01/13 07:17:09;;;;;;;55.07;23.27;;;3.00;96.80;;;;;;4930906;29;20189;-71
2022/01/13 07:19:35;;;;;;;54.70;23.27;;;3.00;96.50;;;;;;4935992;29;20469;-71
2022/01/13 07:22:00;;;;;;;52.40;25.07;;;3.00;96.50;;;;;;4916972;29;20426;-71
2022/01/13 07:24:26;;;;;;;47.83;21.03;;;3.00;96.40;;;;;;4931903;29;20194;-71
2022/01/13 07:26:52;;;;;;;48.87;22.47;;;2.90;96.40;;;;;;4936740;29;20210;-72
2022/01/13 07:29:18;;;;;;;44.33;21.63;;;2.90;96.60;;;;;;4936768;29;20557;-70
2022/01/13 07:31:46;;;;;;;48.57;20.67;;;2.90;96.80;;;;;;4936722;29;20200;-71
2022/01/13 07:34:12;;;;;;;47.50;21.27;;;2.90;96.80;;;;;;4918795;29;20237;-71
2022/01/13 07:36:39;;;;;;;49.20;22.43;;;2.90;96.80;;;;;;4951431;29;20796;-70
2022/01/13 07:39:05;;;;;;;61.27;23.70;;;2.80;96.80;;;;;;4937175;29;20185;-70
2022/01/13 07:41:32;;;;;;;49.10;20.90;;;2.90;97.10;;;;;;4939676;29;20540;-71
2022/01/13 07:43:58;;;;;;;65.47;26.97;;;2.90;97.10;;;;;;4933466;29;20462;-71
2022/01/13 07:46:24;;;;;;;57.40;22.73;;;2.90;97.00;;;;;;4916875;29;20437;-72
2022/01/13 07:48:51;;;;;;;53.57;23.70;;;2.90;97.00;;;;;;4941259;29;20575;-71
2022/01/13 07:51:17;;;;;;;48.03;22.73;;;2.90;97.10;;;;;;4935590;29;20452;-72
2022/01/13 07:53:43;;;;;;;50.40;21.30;;;2.90;97.00;;;;;;4934862;29;20580;-73
2022/01/13 07:56:09;;;;;;;49.70;21.27;;;2.90;96.90;;;;;;4935081;29;20477;-69
2022/01/13 07:58:35;;;;;;;48.90;21.40;;;2.90;97.10;;;;;;4932514;29;20578;-71
2022/01/13 08:01:02;;;;;;;48.47;23.70;;;2.90;97.00;;;;;;4937923;29;20485;-71
2022/01/13 08:03:28;;;;;;;54.27;21.63;;;2.90;97.00;;;;;;4945116;29;20988;-70
2022/01/13 08:05:53;;;;;;;40.73;18.90;;;2.90;96.90;;;;;;4914039;29;20542;-71
2022/01/13 08:08:19;;;;;;;44.23;21.37;;;2.90;96.90;;;;;;4919507;29;20169;-71
2022/01/13 08:10:45;;;;;;;32.83;18.37;;;2.80;96.60;;;;;;4935500;28;20197;-68
2022/01/13 08:13:11;;;;;;;35.83;17.70;;;2.80;96.60;;;;;;4934631;29;20173;-71
2022/01/13 08:15:37;;;;;;;52.43;20.90;;;2.70;96.70;;;;;;4926985;29;20434;-71
2022/01/13 08:20:47;;;;;;;42.90;19.13;;;2.70;97.10;;;;;;4934539;29;20214;-71
2022/01/13 08:23:13;;;;;;;38.60;17.80;;;2.80;97.20;;;;;;4935003;29;20448;-71
2022/01/13 08:25:39;;;;;;;39.30;18.90;;;2.90;97.00;;;;;;4943643;29;20208;-72
2022/01/13 08:28:05;;;;;;;38.13;18.17;;;2.90;97.10;;;;;;4932761;29;20168;-73
2022/01/13 08:30:32;;;;;;;32.13;15.53;;;3.10;97.60;;;;;;4933519;29;20194;-70
2022/01/13 08:32:58;;;;;;;33.43;16.30;;;3.20;96.60;;;;;;4912357;29;20422;-69
2022/01/13 08:35:24;;;;;;;39.20;16.77;;;3.20;96.10;;;;;;4927152;29;20565;-72
2022/01/13 08:37:49;;;;;;;36.77;17.07;;;3.20;96.00;;;;;;4931937;29;20930;-71
2022/01/13 08:40:15;;;;;;;39.97;19.00;;;3.20;95.40;;;;;;4934516;29;21123;-72
2022/01/13 08:42:41;;;;;;;30.40;16.50;;;3.10;95.40;;;;;;4931244;29;20186;-73
2022/01/13 08:45:11;;;;;;;39.40;15.70;;;2.90;95.20;;;;;;4940585;28;20228;-70
2022/01/13 08:47:37;;;;;;;37.00;16.03;;;2.80;95.80;;;;;;4931212;29;20436;-70
2022/01/13 08:50:06;;;;;;;41.77;17.33;;;2.80;96.20;;;;;;4928133;29;20541;-70
2022/01/13 08:52:33;;;;;;;36.33;17.60;;;2.80;96.20;;;;;;4929261;29;20532;-71
2022/01/13 08:54:59;;;;;;;43.70;19.13;;;2.80;96.50;;;;;;4918919;29;20436;-70
2022/01/13 08:57:25;;;;;;;35.70;17.87;;;2.80;96.40;;;;;;4926630;29;20434;-71
2022/01/13 08:59:51;;;;;;;32.10;15.83;;;2.80;96.40;;;;;;4934642;29;20458;-71
2022/01/13 09:02:16;;;;;;;48.20;19.20;;;2.80;96.60;;;;;;4926126;29;20185;-71
2022/01/13 09:04:42;;;;;;;37.50;19.60;;;2.80;96.50;;;;;;4942515;29;20210;-72
2022/01/13 09:07:08;;;;;;;44.30;20.17;;;2.80;97.00;;;;;;4932983;29;20185;-72
2022/01/13 09:09:35;;;;;;;41.73;19.50;;;2.80;96.60;;;;;;4929577;29;20220;-71
2022/01/13 09:12:07;;;;;;;46.43;22.10;;;2.80;96.50;;;;;;4936125;29;20622;-74
2022/01/13 09:14:33;;;;;;;34.77;18.47;;;2.80;96.30;;;;;;4942835;29;20942;-72
2022/01/13 09:17:00;;;;;;;46.73;19.77;;;2.80;96.60;;;;;;4929600;29;20425;-70
2022/01/13 09:19:26;;;;;;;48.27;19.20;;;2.90;96.60;;;;;;4936600;29;20900;-72
2022/01/13 09:21:52;;;;;;;51.23;21.67;;;3.00;96.50;;;;;;4918016;29;20446;-71
2022/01/13 09:24:21;;;;;;;39.80;19.70;;;3.00;96.30;;;;;;4918531;29;20236;-70
2022/01/13 09:26:47;;;;;;;40.47;19.10;;;3.10;95.70;;;;;;4934573;29;20457;-70
2022/01/13 09:29:14;;;;;;;35.43;17.30;;;3.10;95.50;;;;;;4933832;29;20476;-71
2022/01/13 09:31:42;;;;;;;47.30;20.07;;;3.20;95.50;;;;;;4931952;29;20524;-70
2022/01/13 09:34:09;;;;;;;36.93;17.63;;;3.20;95.50;;;;;;4937616;29;20437;-70
2022/01/13 09:36:35;;;;;;;43.40;21.93;;;3.20;96.00;;;;;;4933903;29;20448;-71
2022/01/13 09:39:04;;;;;;;41.00;20.80;;;3.40;96.00;;;;;;4923274;29;20430;-71
2022/01/13 09:41:32;;;;;;;49.10;23.33;;;3.50;95.60;;;;;;4934964;29;20444;-70
2022/01/13 09:44:01;;;;;;;48.37;22.17;;;3.60;95.10;;;;;;4942520;29;20868;-72
2022/01/13 09:46:27;;;;;;;39.90;19.70;;;3.70;94.50;;;;;;4914610;29;20973;-72
2022/01/13 09:48:55;;;;;;;48.17;18.33;;;3.80;94.60;;;;;;4935940;29;20497;-71
2022/01/13 09:51:26;;;;;;;42.93;18.87;;;4.00;93.90;;;;;;4936121;29;21062;-71
2022/01/13 09:53:53;;;;;;;38.07;18.87;;;4.10;92.80;;;;;;4932676;29;20425;-71
2022/01/13 09:56:19;;;;;;;41.13;18.50;;;4.10;92.90;;;;;;4930287;29;20489;-70
2022/01/13 09:58:45;;;;;;;40.23;21.00;;;4.10;92.90;;;;;;4931543;29;20437;-73
2022/01/13 10:01:14;;;;;;;35.87;17.10;;;4.10;93.00;;;;;;4938935;29;21119;-74
2022/01/13 10:03:40;;;;;;;38.83;18.03;;;4.50;94.20;;;;;;4934313;29;20174;-71
2022/01/13 10:06:15;;;;;;;40.13;19.87;;;5.00;92.40;;;;;;4934835;29;20432;-72
2022/01/13 10:08:48;;;;;;;37.63;16.53;;;5.80;90.70;;;;;;4935719;29;20930;-72
2022/01/13 10:11:36;;;;;;;32.37;16.97;;;6.30;87.80;;;;;;4934820;29;20441;-73
2022/01/13 10:16:51;;;;;;;30.87;18.53;;;7.60;80.10;;;;;;4937120;29;20792;-71
2022/01/13 10:19:28;;;;;;;35.80;18.93;;;7.50;76.90;;;;;;4930313;29;20445;-71
2022/01/13 10:21:56;;;;;;;39.17;18.73;;;7.50;76.60;;;;;;4934915;29;20457;-71
2022/01/13 10:24:26;;;;;;;41.70;19.37;;;7.20;76.80;;;;;;4934258;29;20966;-72
2022/01/13 10:26:59;;;;;;;39.83;20.73;;;6.80;77.80;;;;;;4937329;29;20524;-72
2022/01/13 10:30:03;;;;;;;34.93;19.07;;;6.70;79.80;;;;;;4933342;29;20465;-71
2022/01/13 10:32:38;;;;;;;42.43;19.30;;;6.50;80.50;;;;;;4926927;29;20438;-70
2022/01/13 10:35:24;;;;;;;39.10;20.23;;;6.10;80.10;;;;;;4937440;29;20429;-71
2022/01/13 10:37:57;;;;;;;33.80;18.50;;;5.90;81.60;;;;;;4937657;29;20437;-71
2022/01/13 10:40:27;;;;;;;38.13;19.53;;;5.90;84.70;;;;;;4935336;29;20457;-70
2022/01/13 10:45:30;;;;;;;35.20;18.07;;;5.90;84.00;;;;;;4946822;29;20480;-70
2022/01/13 10:48:04;;;;;;;39.53;16.73;;;5.90;83.10;;;;;;4949331;29;20459;-72
2022/01/13 10:50:35;;;;;;;36.43;18.20;;;5.90;83.00;;;;;;4931353;29;20571;-71
2022/01/13 10:53:04;;;;;;;35.83;18.10;;;5.70;82.50;;;;;;4938793;29;20429;-72
2022/01/13 10:55:34;;;;;;;42.53;18.73;;;5.50;82.70;;;;;;4932023;29;20426;-69
2022/01/13 10:57:59;;;;;;;43.53;16.90;;;5.30;84.20;;;;;;4938808;29;20456;-71
2022/01/13 11:00:27;;;;;;;39.90;17.40;;;5.20;85.90;;;;;;4934962;29;20457;-71
2022/01/13 11:03:17;;;;;;;45.40;20.63;;;5.10;85.70;;;;;;4928588;29;20177;-71
2022/01/13 11:06:13;;;;;;;39.10;20.27;;;5.00;86.50;;;;;;4937232;29;20464;-72
2022/01/13 11:08:45;;;;;;;39.20;18.20;;;5.00;87.80;;;;;;4907939;29;20434;-70
2022/01/13 11:11:22;;;;;;;54.43;19.27;;;5.00;88.10;;;;;;4936422;29;20500;-72
2022/01/13 11:13:54;;;;;;;47.77;18.53;;;5.00;87.70;;;;;;4940630;29;20428;-72
2022/01/13 11:16:21;;;;;;;46.00;17.80;;;4.80;88.00;;;;;;4927392;29;20501;-72
2022/01/13 11:18:47;;;;;;;41.23;17.87;;;4.80;88.80;;;;;;4942617;29;20492;-72
2022/01/13 11:21:14;;;;;;;40.37;17.43;;;4.80;88.30;;;;;;4932537;29;20512;-70
2022/01/13 11:23:44;;;;;;;42.73;20.93;;;4.80;89.40;;;;;;4925618;29;20970;-71
2022/01/13 11:26:12;;;;;;;40.50;17.80;;;4.90;89.60;;;;;;4935942;29;20429;-71
2022/01/13 11:28:39;;;;;;;51.27;18.50;;;4.90;89.30;;;;;;4935721;29;20501;-69
2022/01/13 11:31:09;;;;;;;43.37;19.10;;;4.90;89.30;;;;;;4932227;29;20487;-70
2022/01/13 11:33:36;;;;;;;41.70;17.20;;;4.90;89.50;;;;;;4918738;29;20433;-71
2022/01/13 11:36:04;;;;;;;36.27;16.40;;;4.90;87.90;;;;;;4939052;29;20488;-71
2022/01/13 11:38:31;;;;;;;46.00;20.60;;;4.90;88.80;;;;;;4931677;29;20941;-70
2022/01/13 11:41:06;;;;;;;44.00;20.57;;;4.90;89.60;;;;;;4934674;29;20455;-70
2022/01/13 11:43:34;;;;;;;54.30;25.33;;;4.90;89.30;;;;;;4937610;29;20488;-70
2022/01/13 11:46:11;;;;;;;34.13;15.80;;;4.90;89.80;;;;;;4946697;29;20445;-71
2022/01/13 11:48:41;;;;;;;35.47;16.93;;;5.00;88.80;;;;;;4920342;29;20421;-71
2022/01/13 11:51:21;;;;;;;36.40;18.50;;;5.00;89.30;;;;;;4907265;29;20517;-72
2022/01/13 11:54:02;;;;;;;27.23;15.50;;;5.00;90.50;;;;;;4924202;29;20953;-71
2022/01/13 11:56:28;;;;;;;35.83;15.60;;;4.90;89.10;;;;;;4935291;29;20493;-72
2022/01/13 11:58:55;;;;;;;32.93;16.07;;;5.00;89.70;;;;;;4934318;29;20442;-72
2022/01/13 12:01:27;;;;;;;46.67;17.47;;;5.00;89.80;;;;;;4931223;29;20437;-71
2022/01/13 12:04:01;;;;;;;33.93;15.10;;;5.10;89.30;;;;;;4934920;29;20540;-71
2022/01/13 12:06:42;;;;;;;35.60;17.00;;;5.10;88.60;;;;;;4942124;29;20586;-72
2022/01/13 12:09:11;;;;;;;37.23;15.80;;;5.10;88.70;;;;;;4902395;29;20455;-71
2022/01/13 12:11:59;;;;;;;38.23;15.43;;;5.10;88.70;;;;;;4930988;29;20456;-72
2022/01/13 12:14:25;;;;;;;37.90;17.17;;;5.10;88.80;;;;;;4917684;29;20403;-71
2022/01/13 12:17:03;;;;;;;39.93;18.80;;;5.10;88.10;;;;;;4928464;29;20445;-70
2022/01/13 12:19:36;;;;;;;33.93;16.40;;;5.20;88.60;;;;;;4930356;29;20213;-72
2022/01/13 12:22:10;;;;;;;36.53;16.83;;;5.20;88.90;;;;;;4936637;29;20436;-73
2022/01/13 12:24:52;;;;;;;29.70;15.33;;;5.30;89.60;;;;;;4937257;29;20957;-71
2022/01/13 12:27:26;;;;;;;28.00;14.13;;;5.30;88.50;;;;;;4935730;29;20432;-70
2022/01/13 12:30:11;;;;;;;35.20;16.20;;;5.40;88.20;;;;;;4936752;29;20464;-71
2022/01/13 12:32:43;;;;;;;34.53;17.07;;;5.40;87.00;;;;;;4935680;29;20710;-70
2022/01/13 12:35:14;;;;;;;32.00;15.37;;;5.50;87.20;;;;;;4935788;29;20440;-72
2022/01/13 12:37:41;;;;;;;31.13;14.97;;;5.50;86.40;;;;;;4935822;29;20990;-73
2022/01/13 12:40:12;;;;;;;46.47;18.97;;;5.50;86.50;;;;;;4936007;29;20951;-70
2022/01/13 12:42:43;;;;;;;31.50;15.90;;;5.50;86.70;;;;;;4934920;29;20479;-74
2022/01/13 12:45:28;;;;;;;26.83;14.03;;;5.60;86.70;;;;;;4917952;29;20460;-73
2022/01/13 12:48:05;;;;;;;36.77;15.80;;;5.60;86.50;;;;;;4934702;29;20417;-70
2022/01/13 12:50:40;;;;;;;32.97;16.07;;;5.70;86.30;;;;;;4933432;29;20449;-71
2022/01/13 12:53:16;;;;;;;30.67;13.80;;;5.70;85.30;;;;;;4927635;29;20425;-73
2022/01/13 12:55:45;;;;;;;26.67;13.77;;;5.70;85.40;;;;;;4934275;29;20428;-71
2022/01/13 12:58:11;;;;;;;34.47;15.83;;;5.80;86.00;;;;;;4932816;29;20517;-73
2022/01/13 13:00:38;;;;;;;32.97;15.97;;;5.80;85.10;;;;;;4935423;29;20842;-72
2022/01/13 13:03:06;;;;;;;30.50;15.00;;;5.80;84.70;;;;;;4932835;29;21126;-72
2022/01/13 13:05:44;;;;;;;34.07;15.30;;;5.80;84.80;;;;;;4932802;29;20948;-71
2022/01/13 13:08:13;;;;;;;34.10;16.90;;;5.90;84.10;;;;;;4933640;29;20430;-71
2022/01/13 13:10:44;;;;;;;29.87;14.20;;;5.90;84.10;;;;;;4924938;29;20460;-72
2022/01/13 13:13:12;;;;;;;38.97;19.70;;;5.90;84.20;;;;;;4938622;29;20440;-70